Time;durP1;ratioP1;P1;durP2;ratioP2;P2;SDS_P1;SDS_P2;PMS_P1;PMS_P2;Temp;Humidity;BMP_temperature;BMP_pressure;BME280_temperature;BME280_humidity;BME280_pressure;Samples;Min_cycle;Max_cycle;Signal;HPM_P1;HPM_P2
2023/11/26 00:00:06;;;;;;;16.17;5.63;;;5.10;99.90;;;;;;4957022;28;88504;-79
2023/11/26 00:02:52;;;;;;;19.48;6.25;;;5.00;99.90;;;;;;4943275;28;88462;-79
2023/11/26 00:06:11;;;;;;;22.45;5.63;;;5.00;99.90;;;;;;4955643;28;87909;-80
2023/11/26 00:09:28;;;;;;;21.08;6.05;;;4.90;99.90;;;;;;4947971;28;90309;-79
2023/11/26 00:12:04;;;;;;;24.10;6.88;;;4.90;99.90;;;;;;4956257;28;88694;-79
2023/11/26 00:14:46;;;;;;;20.73;5.47;;;4.90;99.90;;;;;;4957175;28;87557;-79
2023/11/26 00:20:31;;;;;;;23.65;6.63;;;4.80;99.90;;;;;;4870586;28;89810;-80
2023/11/26 00:23:55;;;;;;;20.55;6.40;;;4.80;99.90;;;;;;4928277;28;89843;-79
2023/11/26 00:26:24;;;;;;;23.85;6.65;;;4.70;99.90;;;;;;4918153;28;87791;-79
2023/11/26 00:29:04;;;;;;;21.52;6.90;;;4.70;99.90;;;;;;4949620;28;88802;-79
2023/11/26 00:31:39;;;;;;;21.27;5.95;;;4.70;99.90;;;;;;4940919;28;91249;-79
2023/11/26 00:34:37;;;;;;;23.65;7.20;;;4.60;99.90;;;;;;4941576;28;89043;-79
2023/11/26 00:37:16;;;;;;;23.02;6.40;;;4.70;99.90;;;;;;4877874;28;88836;-79
2023/11/26 00:39:55;;;;;;;26.83;6.55;;;4.70;99.90;;;;;;4956192;28;87558;-79
2023/11/26 00:42:58;;;;;;;29.15;7.22;;;4.70;99.90;;;;;;4957706;28;90888;-79
2023/11/26 00:45:55;;;;;;;20.33;6.27;;;4.60;99.90;;;;;;4955666;28;88014;-79
2023/11/26 00:48:51;;;;;;;27.60;6.88;;;4.60;99.90;;;;;;4910141;28;88331;-79
2023/11/26 00:51:51;;;;;;;26.60;6.38;;;4.70;99.90;;;;;;4960633;28;87175;-79
2023/11/26 00:54:36;;;;;;;20.40;6.20;;;4.60;99.90;;;;;;4935256;28;90398;-79
2023/11/26 00:57:31;;;;;;;21.42;6.13;;;4.60;99.90;;;;;;4968979;28;88080;-80
2023/11/26 01:03:24;;;;;;;17.40;5.95;;;4.60;99.90;;;;;;4953984;28;88585;-79
2023/11/26 01:06:10;;;;;;;23.90;6.05;;;4.60;99.90;;;;;;4944763;28;91138;-79
2023/11/26 01:09:31;;;;;;;21.70;6.38;;;4.60;99.90;;;;;;4956988;28;88466;-79
2023/11/26 01:14:56;;;;;;;17.63;5.55;;;4.60;99.90;;;;;;4930191;28;87849;-79
2023/11/26 01:17:48;;;;;;;23.38;5.63;;;4.60;99.90;;;;;;4903026;28;90452;-79
2023/11/26 01:20:59;;;;;;;;;;;;;;;;;;;;;
2023/11/26 01:23:33;;;;;;;20.52;5.90;;;4.60;99.90;;;;;;4934355;28;109016;-80
2023/11/26 01:26:41;;;;;;;26.52;6.80;;;4.60;99.90;;;;;;4955251;28;87185;-79
2023/11/26 01:29:28;;;;;;;20.30;6.65;;;4.50;99.90;;;;;;4917922;28;93551;-79
2023/11/26 01:32:11;;;;;;;15.77;5.70;;;4.50;99.90;;;;;;4942494;28;89874;-79
2023/11/26 01:35:19;;;;;;;17.87;6.27;;;4.50;99.90;;;;;;4945505;28;87795;-79
2023/11/26 01:37:53;;;;;;;24.48;6.93;;;4.50;99.90;;;;;;4951917;28;89805;-79
2023/11/26 01:40:28;;;;;;;21.23;6.43;;;4.50;99.90;;;;;;4938364;28;91136;-79
2023/11/26 01:43:32;;;;;;;;;;;;;;;;;;;;;
2023/11/26 01:46:28;;;;;;;19.38;6.63;;;4.50;99.90;;;;;;4965871;28;109723;-79
2023/11/26 01:49:37;;;;;;;17.95;7.10;;;4.50;99.90;;;;;;4919784;28;93086;-79
2023/11/26 01:52:26;;;;;;;27.13;6.75;;;4.50;99.90;;;;;;4956366;28;93504;-79
2023/11/26 01:55:17;;;;;;;24.10;6.53;;;4.50;99.90;;;;;;4955642;28;87687;-79
2023/11/26 01:57:53;;;;;;;30.05;8.38;;;4.50;99.90;;;;;;4961582;28;88171;-80
2023/11/26 02:00:47;;;;;;;26.48;7.40;;;4.60;99.90;;;;;;4955401;28;87882;-80
2023/11/26 02:03:33;;;;;;;;;;;4.60;99.90;;;;;;4948816;28;87590;-79
2023/11/26 02:06:17;;;;;;;19.80;6.85;;;4.60;99.90;;;;;;4943758;28;89969;-79
2023/11/26 02:08:45;;;;;;;;;;;4.60;99.90;;;;;;4963487;28;87476;-79
2023/11/26 02:11:11;;;;;;;24.92;7.97;;;4.70;99.90;;;;;;4946032;28;90593;-79
2023/11/26 02:13:49;;;;;;;24.92;8.45;;;4.70;99.90;;;;;;4941152;28;92106;-79
2023/11/26 02:16:17;;;;;;;30.75;8.68;;;4.70;99.90;;;;;;4948091;28;88124;-79
2023/11/26 02:19:09;;;;;;;33.40;8.18;;;4.70;99.90;;;;;;4942299;28;87168;-79
2023/11/26 02:21:38;;;;;;;28.52;8.52;;;4.70;99.90;;;;;;4958139;28;91004;-79
2023/11/26 02:24:25;;;;;;;28.73;8.52;;;4.80;99.90;;;;;;4948562;28;89316;-79
2023/11/26 02:27:01;;;;;;;;;;;;;;;;;;;;;
2023/11/26 02:29:46;;;;;;;35.38;8.30;;;4.80;99.90;;;;;;4957373;28;109954;-79
2023/11/26 02:32:26;;;;;;;26.52;8.40;;;4.80;99.90;;;;;;4960933;28;88156;-79
2023/11/26 02:35:05;;;;;;;23.33;8.32;;;4.80;99.90;;;;;;4939415;28;92085;-79
2023/11/26 02:37:42;;;;;;;28.55;8.40;;;4.70;99.90;;;;;;4935012;28;90972;-79
2023/11/26 02:40:37;;;;;;;29.73;8.73;;;4.70;99.90;;;;;;4951067;28;87667;-79
2023/11/26 02:43:08;;;;;;;31.77;9.18;;;4.70;99.90;;;;;;4973140;28;89526;-79
2023/11/26 02:45:33;;;;;;;29.08;10.13;;;4.70;99.90;;;;;;4930403;28;94663;-79
2023/11/26 02:48:08;;;;;;;37.75;10.77;;;4.70;99.90;;;;;;4955787;28;87729;-79
2023/11/26 02:50:42;;;;;;;27.33;10.73;;;4.70;99.90;;;;;;4940660;28;88577;-79
2023/11/26 02:53:27;;;;;;;25.65;12.05;;;4.70;99.90;;;;;;4940821;28;87854;-79
2023/11/26 02:56:00;;;;;;;29.73;11.63;;;4.70;99.90;;;;;;4943040;28;88364;-79
2023/11/26 02:58:29;;;;;;;31.60;10.73;;;4.70;99.90;;;;;;4955515;28;88678;-79
2023/11/26 03:01:06;;;;;;;28.15;12.20;;;4.70;99.90;;;;;;4956902;28;87429;-79
2023/11/26 03:03:40;;;;;;;31.80;12.77;;;4.70;99.90;;;;;;4929504;28;90813;-79
2023/11/26 03:06:11;;;;;;;35.70;13.70;;;4.70;99.90;;;;;;4961349;28;90520;-79
2023/11/26 03:09:00;;;;;;;37.67;14.40;;;4.70;99.90;;;;;;4957364;28;88814;-79
2023/11/26 03:14:32;;;;;;;37.60;12.77;;;4.70;99.90;;;;;;4964162;28;87309;-79
2023/11/26 03:17:27;;;;;;;33.13;13.10;;;4.70;99.90;;;;;;4962196;28;88746;-79
2023/11/26 03:20:13;;;;;;;42.00;14.13;;;4.70;99.90;;;;;;4954128;28;94755;-79
2023/11/26 03:22:51;;;;;;;36.83;14.25;;;4.70;99.90;;;;;;4951890;28;87247;-79
2023/11/26 03:25:37;;;;;;;38.05;14.82;;;4.70;99.90;;;;;;4943581;28;87468;-79
2023/11/26 03:28:05;;;;;;;38.65;14.85;;;4.70;99.90;;;;;;4966924;28;88551;-79
2023/11/26 03:30:52;;;;;;;46.08;16.05;;;4.70;99.90;;;;;;4929968;28;95521;-79
2023/11/26 03:33:29;;;;;;;36.33;15.38;;;4.70;99.90;;;;;;4956844;28;87940;-79
2023/11/26 03:36:10;;;;;;;;;;;;;;;;;;;;;
2023/11/26 03:38:44;;;;;;;41.28;15.48;;;4.70;99.90;;;;;;4954678;28;115948;-80
2023/11/26 03:41:50;;;;;;;42.47;16.00;;;4.80;99.90;;;;;;4952955;28;89391;-79
2023/11/26 03:44:34;;;;;;;;;;;4.80;99.90;;;;;;4956660;28;88539;-79
2023/11/26 03:47:25;;;;;;;38.78;15.27;;;4.80;99.90;;;;;;4941489;28;87786;-79
2023/11/26 03:53:14;;;;;;;38.50;15.98;;;4.80;99.90;;;;;;4947893;28;89540;-79
2023/11/26 03:55:50;;;;;;;42.30;15.50;;;4.80;99.90;;;;;;4948214;28;87882;-79
2023/11/26 03:58:31;;;;;;;44.22;16.42;;;4.90;99.90;;;;;;4939414;28;89558;-79
2023/11/26 04:01:15;;;;;;;;;;;;;;;;;;;;;
2023/11/26 04:04:07;;;;;;;48.13;16.90;;;4.90;99.90;;;;;;4868180;28;92293;-80
2023/11/26 04:06:40;;;;;;;40.67;16.17;;;5.00;99.90;;;;;;4930683;28;89091;-79
2023/11/26 04:09:10;;;;;;;37.63;17.20;;;5.00;99.90;;;;;;4967933;28;88153;-79
2023/11/26 04:11:54;;;;;;;;;;;;;;;;;;;;;
2023/11/26 04:14:51;;;;;;;43.70;17.08;;;5.00;99.90;;;;;;4952777;28;118011;-79
2023/11/26 04:17:23;;;;;;;45.13;15.13;;;5.10;99.90;;;;;;4968599;28;88203;-79
2023/11/26 04:19:57;;;;;;;40.75;15.43;;;5.10;99.90;;;;;;4967373;28;87204;-79
2023/11/26 04:22:29;;;;;;;37.15;14.95;;;5.10;99.90;;;;;;4959745;28;88875;-80
2023/11/26 04:25:09;;;;;;;42.30;15.32;;;5.10;99.90;;;;;;4953272;28;91761;-79
2023/11/26 04:27:55;;;;;;;38.70;15.63;;;5.10;99.90;;;;;;4956097;28;89097;-79
2023/11/26 04:30:25;;;;;;;40.20;14.45;;;5.10;99.90;;;;;;4955546;28;89143;-79
2023/11/26 04:33:01;;;;;;;33.08;14.18;;;5.20;99.90;;;;;;4942501;28;89307;-79
2023/11/26 04:35:41;;;;;;;41.20;13.80;;;5.20;99.90;;;;;;4945940;28;90540;-79
2023/11/26 04:38:14;;;;;;;40.25;14.18;;;5.20;99.90;;;;;;4955977;28;88403;-79
2023/11/26 04:40:43;;;;;;;37.25;13.25;;;5.20;99.90;;;;;;4933026;28;88446;-79
2023/11/26 04:43:27;;;;;;;33.03;12.50;;;5.20;99.90;;;;;;4957787;28;87738;-79
2023/11/26 04:46:09;;;;;;;34.28;13.32;;;5.30;99.90;;;;;;4942987;28;87696;-79
2023/11/26 04:48:35;;;;;;;36.53;12.73;;;5.30;99.90;;;;;;4912690;28;89797;-79
2023/11/26 04:51:17;;;;;;;39.35;14.75;;;5.30;99.90;;;;;;4956300;28;87202;-79
2023/11/26 04:53:52;;;;;;;30.80;13.00;;;5.30;99.90;;;;;;4956034;28;87937;-78
2023/11/26 04:56:35;;;;;;;39.47;13.13;;;5.30;99.90;;;;;;4956081;28;87710;-79
2023/11/26 04:59:18;;;;;;;36.35;13.13;;;5.30;99.90;;;;;;4938613;28;87855;-79
2023/11/26 05:02:05;;;;;;;33.08;12.80;;;5.30;99.90;;;;;;4943198;28;87447;-79
2023/11/26 05:04:37;;;;;;;27.70;11.88;;;5.30;99.90;;;;;;4954662;28;88483;-79
2023/11/26 05:07:19;;;;;;;25.77;11.20;;;5.40;99.90;;;;;;4938519;28;91389;-79
2023/11/26 05:10:01;;;;;;;36.13;11.95;;;5.40;99.90;;;;;;4938070;28;91708;-78
2023/11/26 05:12:48;;;;;;;30.50;12.75;;;5.40;99.90;;;;;;4959946;28;89269;-79
2023/11/26 05:15:43;;;;;;;25.52;11.93;;;5.40;99.90;;;;;;4937373;28;92076;-79
2023/11/26 05:18:39;;;;;;;36.97;12.32;;;5.40;99.90;;;;;;4921568;28;87814;-79
2023/11/26 05:21:17;;;;;;;31.30;11.43;;;5.40;99.90;;;;;;4945173;28;87509;-79
2023/11/26 05:24:12;;;;;;;30.80;11.20;;;5.40;99.90;;;;;;4957593;28;87809;-79
2023/11/26 05:26:37;;;;;;;29.77;11.65;;;5.50;99.90;;;;;;4929014;28;91882;-80
2023/11/26 05:36:25;;;;;;;22.88;10.18;;;5.50;99.90;;;;;;4845777;28;87666;-79
2023/11/26 05:39:03;;;;;;;33.00;11.77;;;5.50;99.90;;;;;;4847386;29;90621;-79
2023/11/26 05:41:43;;;;;;;26.38;9.82;;;5.50;99.90;;;;;;4831665;29;91783;-79
2023/11/26 05:44:33;;;;;;;33.13;12.75;;;5.50;99.90;;;;;;4860887;29;87270;-79
2023/11/26 05:47:10;;;;;;;26.10;10.48;;;5.50;99.90;;;;;;4933620;28;87584;-79
2023/11/26 05:49:55;;;;;;;30.25;9.90;;;5.50;99.90;;;;;;4965567;28;87876;-79
2023/11/26 05:52:56;;;;;;;22.55;9.63;;;5.50;99.90;;;;;;4943458;28;88167;-79
2023/11/26 05:55:33;;;;;;;22.08;10.25;;;5.50;99.90;;;;;;4938532;28;89963;-80
2023/11/26 05:58:07;;;;;;;21.63;10.77;;;5.50;99.90;;;;;;4970961;28;87560;-79
2023/11/26 06:00:58;;;;;;;;;;;;;;;;;;;;;
2023/11/26 06:03:47;;;;;;;31.15;10.02;;;5.50;99.90;;;;;;4970386;28;118736;-79
2023/11/26 06:06:28;;;;;;;32.83;10.95;;;5.50;99.90;;;;;;4892738;28;87968;-79
2023/11/26 06:09:16;;;;;;;26.92;10.93;;;5.50;99.90;;;;;;4934851;28;89511;-79
2023/11/26 06:11:57;;;;;;;34.65;12.20;;;5.50;99.90;;;;;;4954438;28;89305;-79
2023/11/26 06:14:50;;;;;;;39.72;10.75;;;5.50;99.90;;;;;;4958374;28;88087;-79
2023/11/26 06:17:43;;;;;;;28.97;10.43;;;5.50;99.90;;;;;;4952547;28;87622;-79
2023/11/26 06:20:27;;;;;;;26.60;10.40;;;5.60;99.90;;;;;;4948669;28;87720;-79
2023/11/26 06:23:10;;;;;;;34.72;10.27;;;5.60;99.90;;;;;;4936516;28;91475;-79
2023/11/26 06:25:56;;;;;;;24.90;10.45;;;5.60;99.90;;;;;;4922416;28;91706;-80
2023/11/26 06:28:50;;;;;;;27.67;10.73;;;5.60;99.90;;;;;;4967244;28;88858;-79
2023/11/26 06:31:44;;;;;;;29.25;11.95;;;5.50;99.90;;;;;;4938642;28;91201;-79
2023/11/26 06:34:25;;;;;;;;;;;;;;;;;;;;;
2023/11/26 06:37:08;;;;;;;27.92;9.95;;;5.60;99.90;;;;;;4967803;28;117017;-79
2023/11/26 06:42:46;;;;;;;27.33;11.18;;;5.50;99.90;;;;;;4925691;28;91395;-79
2023/11/26 06:49:01;;;;;;;24.88;10.25;;;5.50;99.90;;;;;;4957162;28;88846;-79
2023/11/26 06:51:39;;;;;;;27.23;10.52;;;5.50;99.90;;;;;;4931856;28;88172;-79
2023/11/26 06:54:33;;;;;;;;;;;;;;;;;;;;;
2023/11/26 06:57:12;;;;;;;24.88;10.50;;;5.50;99.90;;;;;;4915544;28;120214;-79
2023/11/26 06:59:46;;;;;;;28.42;10.15;;;5.60;99.90;;;;;;4951133;28;88456;-79
2023/11/26 07:05:56;;;;;;;29.17;10.90;;;5.60;99.90;;;;;;4907704;28;87640;-79
2023/11/26 07:20:23;;;;;;;;;;;;;;;;;;;;;
2023/11/26 07:27:27;;;;;;;30.98;13.05;;;5.70;99.90;;;;;;4768456;29;88143;-80
2023/11/26 07:45:12;;;;;;;22.38;10.85;;;5.70;99.90;;;;;;4696370;30;87577;-80
2023/11/26 07:51:22;;;;;;;27.67;10.75;;;5.80;99.90;;;;;;4737801;29;88552;-79
2023/11/26 07:54:15;;;;;;;32.58;11.73;;;5.80;99.90;;;;;;4733932;29;90194;-80
2023/11/26 07:56:49;;;;;;;24.80;9.80;;;5.80;99.90;;;;;;4720938;29;87561;-80
2023/11/26 07:59:18;;;;;;;26.20;9.75;;;5.80;99.90;;;;;;4723557;29;88906;-79
2023/11/26 08:02:43;;;;;;;22.45;10.05;;;5.80;99.90;;;;;;4786795;29;90892;-80
2023/11/26 08:15:58;;;;;;;22.73;8.38;;;6.00;99.90;;;;;;4853106;28;88601;-80
2023/11/26 08:19:16;;;;;;;27.60;9.05;;;6.10;99.90;;;;;;4916423;28;89709;-81
2023/11/26 08:21:47;;;;;;;24.95;9.32;;;6.10;99.90;;;;;;4880028;28;88677;-79
2023/11/26 08:27:59;;;;;;;18.92;8.88;;;6.10;99.90;;;;;;4938625;28;89123;-80
2023/11/26 08:30:31;;;;;;;24.85;9.05;;;6.20;99.90;;;;;;4948599;28;90294;-79
2023/11/26 08:33:24;;;;;;;20.30;9.13;;;6.20;99.90;;;;;;4947746;28;88890;-79
2023/11/26 08:35:53;;;;;;;;;;;6.20;99.90;;;;;;4928306;28;88741;-79
2023/11/26 08:38:19;;;;;;;26.48;8.50;;;6.30;99.90;;;;;;4955558;28;87504;-78
2023/11/26 08:40:45;;;;;;;20.92;8.85;;;6.30;99.90;;;;;;4937535;28;89011;-79
2023/11/26 08:43:18;;;;;;;22.20;8.55;;;6.30;99.90;;;;;;4943501;28;87788;-78
2023/11/26 08:46:28;;;;;;;20.38;8.65;;;6.30;99.90;;;;;;4931105;28;89292;-79
2023/11/26 08:48:56;;;;;;;20.15;8.57;;;6.40;99.90;;;;;;4928579;28;90020;-78
2023/11/26 08:54:48;;;;;;;20.38;8.63;;;6.50;99.90;;;;;;4921991;28;87209;-78
2023/11/26 08:57:14;;;;;;;26.30;9.43;;;6.50;99.90;;;;;;4963759;28;89271;-79
2023/11/26 08:59:45;;;;;;;22.45;8.73;;;6.50;99.90;;;;;;4949226;28;90105;-78
2023/11/26 09:02:10;;;;;;;28.13;10.05;;;6.60;99.90;;;;;;4936033;28;92748;-78
2023/11/26 09:04:38;;;;;;;25.42;10.57;;;6.60;99.90;;;;;;4927698;28;87878;-79
2023/11/26 09:07:06;;;;;;;22.88;9.80;;;6.70;99.90;;;;;;4952356;28;89651;-79
2023/11/26 09:09:37;;;;;;;22.27;9.38;;;6.70;99.90;;;;;;4951459;28;92457;-78
2023/11/26 09:12:05;;;;;;;21.73;9.52;;;6.70;99.90;;;;;;4947772;28;88313;-78
2023/11/26 09:14:32;;;;;;;24.05;9.80;;;6.70;99.90;;;;;;4949009;28;87429;-78
2023/11/26 09:16:58;;;;;;;19.10;9.48;;;6.80;99.90;;;;;;4947098;28;86883;-78
2023/11/26 09:22:12;;;;;;;26.48;11.50;;;6.80;99.90;;;;;;4943812;28;90306;-78
2023/11/26 09:24:38;;;;;;;22.08;9.65;;;6.90;99.90;;;;;;4932655;28;88701;-79
2023/11/26 09:34:05;;;;;;;27.20;10.68;;;6.90;99.90;;;;;;4953495;28;89642;-79
2023/11/26 09:40:38;;;;;;;22.45;10.68;;;7.10;99.90;;;;;;4884268;28;91112;-80
2023/11/26 09:44:08;;;;;;;30.23;11.30;;;7.10;99.90;;;;;;4894025;28;95165;-80
2023/11/26 09:47:15;;;;;;;26.92;10.93;;;7.10;99.90;;;;;;4906794;28;89272;-80
2023/11/26 09:53:22;;;;;;;24.75;11.43;;;7.20;99.90;;;;;;4895374;28;88519;-79
2023/11/26 09:55:54;;;;;;;22.73;10.45;;;7.20;99.90;;;;;;4889015;28;89360;-78
2023/11/26 09:58:23;;;;;;;22.02;10.48;;;7.20;99.90;;;;;;4891834;28;88618;-80
2023/11/26 10:01:05;;;;;;;;;;;;;;;;;;;;;
2023/11/26 10:03:31;;;;;;;25.33;10.50;;;7.20;99.90;;;;;;4905705;28;118745;-77
2023/11/26 10:06:17;;;;;;;25.35;11.15;;;7.20;99.90;;;;;;4899621;28;88993;-78
2023/11/26 10:08:43;;;;;;;28.83;11.35;;;7.20;99.90;;;;;;4943206;28;88745;-79
2023/11/26 10:11:08;;;;;;;28.15;11.80;;;7.20;99.90;;;;;;4943723;28;87423;-78
2023/11/26 10:13:38;;;;;;;23.48;10.38;;;7.20;99.90;;;;;;4942761;28;87232;-78
2023/11/26 10:16:04;;;;;;;21.08;11.25;;;7.20;99.90;;;;;;4944076;28;89222;-78
2023/11/26 10:18:41;;;;;;;30.00;13.02;;;7.20;99.90;;;;;;4953899;28;87713;-78
2023/11/26 10:21:08;;;;;;;24.15;10.75;;;7.30;99.90;;;;;;4953965;28;88473;-78
2023/11/26 10:23:38;;;;;;;24.30;10.35;;;7.30;99.90;;;;;;4954194;28;87657;-79
2023/11/26 10:26:26;;;;;;;23.80;10.73;;;7.30;99.90;;;;;;4954541;28;89698;-78
2023/11/26 10:29:20;;;;;;;26.83;9.20;;;7.30;99.90;;;;;;4958270;28;88491;-79
2023/11/26 10:32:00;;;;;;;24.10;10.25;;;7.30;99.90;;;;;;4934575;28;88404;-80
2023/11/26 10:34:27;;;;;;;26.27;10.57;;;7.30;99.90;;;;;;4891870;28;87791;-77
2023/11/26 10:36:52;;;;;;;28.85;10.70;;;7.30;99.90;;;;;;4926228;28;92804;-78
2023/11/26 10:39:18;;;;;;;27.05;9.57;;;7.30;99.90;;;;;;4935172;28;90758;-77
2023/11/26 10:41:47;;;;;;;25.48;9.52;;;7.30;99.90;;;;;;4938369;28;87661;-77
2023/11/26 10:44:18;;;;;;;25.08;9.52;;;7.30;99.90;;;;;;4940484;28;89136;-77
2023/11/26 10:46:48;;;;;;;26.15;9.75;;;7.30;99.90;;;;;;4956267;28;89390;-77
2023/11/26 10:49:30;;;;;;;18.50;9.18;;;7.30;99.90;;;;;;4938994;28;92586;-78
2023/11/26 10:52:15;;;;;;;20.85;9.80;;;7.30;99.90;;;;;;4958358;28;87377;-78
2023/11/26 10:55:45;;;;;;;26.20;10.07;;;7.30;99.90;;;;;;4940500;28;93524;-78
2023/11/26 10:58:18;;;;;;;21.42;8.65;;;7.20;99.90;;;;;;4855568;29;93038;-78
2023/11/26 11:00:52;;;;;;;21.33;9.53;;;7.20;99.90;;;;;;4858723;29;89883;-77
2023/11/26 11:03:18;;;;;;;22.73;9.68;;;7.20;99.90;;;;;;4932602;28;87935;-78
2023/11/26 11:05:47;;;;;;;20.27;9.85;;;7.20;99.90;;;;;;4940073;28;90542;-78
2023/11/26 11:08:14;;;;;;;24.05;10.55;;;7.20;99.90;;;;;;4939965;28;90968;-78
2023/11/26 11:11:01;;;;;;;24.02;9.80;;;7.20;99.90;;;;;;4939477;28;90897;-80
2023/11/26 11:13:28;;;;;;;22.15;9.52;;;7.10;99.90;;;;;;4958692;28;88705;-78
2023/11/26 11:15:54;;;;;;;27.88;11.40;;;7.20;99.90;;;;;;4940344;28;89118;-80
2023/11/26 11:18:26;;;;;;;27.15;10.85;;;7.20;99.90;;;;;;4937944;28;90661;-80
2023/11/26 11:21:16;;;;;;;29.67;11.57;;;7.10;99.90;;;;;;4940972;28;89665;-78
2023/11/26 11:23:47;;;;;;;18.70;10.27;;;7.10;99.90;;;;;;4955115;28;87564;-77
2023/11/26 11:26:15;;;;;;;21.02;10.02;;;7.10;99.90;;;;;;4953446;28;87993;-77
2023/11/26 11:28:43;;;;;;;17.38;9.10;;;7.10;99.90;;;;;;4953111;28;89964;-78
2023/11/26 11:31:10;;;;;;;18.05;10.90;;;7.10;99.90;;;;;;4929422;28;91409;-77
2023/11/26 11:33:55;;;;;;;28.88;10.95;;;7.10;99.90;;;;;;4882026;28;88403;-77
2023/11/26 11:36:49;;;;;;;23.40;11.18;;;7.10;99.90;;;;;;4902900;28;93069;-77
2023/11/26 11:39:17;;;;;;;26.85;9.95;;;7.10;99.90;;;;;;4931413;28;93748;-77
2023/11/26 11:41:58;;;;;;;26.77;10.15;;;7.10;99.90;;;;;;4937166;28;89330;-78
2023/11/26 11:44:38;;;;;;;22.50;10.13;;;7.10;99.90;;;;;;4901481;28;87580;-77
2023/11/26 11:47:06;;;;;;;31.92;11.02;;;7.10;99.90;;;;;;4909640;28;87586;-79
2023/11/26 11:52:43;;;;;;;30.38;11.82;;;7.10;99.90;;;;;;4912980;28;93193;-77
2023/11/26 11:55:54;;;;;;;32.33;12.98;;;7.10;99.90;;;;;;4912404;28;88609;-77
2023/11/26 11:58:20;;;;;;;31.00;13.38;;;7.20;99.90;;;;;;4805042;28;98642;-77
2023/11/26 12:01:05;;;;;;;25.88;12.65;;;7.10;99.90;;;;;;4888854;28;91457;-77
2023/11/26 12:03:38;;;;;;;29.48;12.85;;;7.20;99.90;;;;;;4932593;28;90292;-78
2023/11/26 12:06:10;;;;;;;30.93;12.70;;;7.10;99.90;;;;;;4947563;28;88433;-78
2023/11/26 12:08:36;;;;;;;30.98;13.50;;;7.10;99.90;;;;;;4953943;28;87548;-77
2023/11/26 12:11:10;;;;;;;29.52;13.48;;;7.10;99.90;;;;;;4952707;28;87638;-77
2023/11/26 12:13:42;;;;;;;34.80;13.50;;;7.10;99.90;;;;;;4937138;28;92004;-78
2023/11/26 12:16:09;;;;;;;33.42;12.75;;;7.10;99.90;;;;;;4958738;28;88167;-78
2023/11/26 12:18:35;;;;;;;30.27;14.05;;;7.10;99.90;;;;;;4957841;28;90833;-77
2023/11/26 12:21:03;;;;;;;32.45;13.45;;;7.10;99.90;;;;;;4928621;28;90208;-77
2023/11/26 12:23:37;;;;;;;31.95;13.25;;;7.10;99.90;;;;;;4929060;28;91854;-78
2023/11/26 12:26:03;;;;;;;31.80;14.10;;;7.10;99.90;;;;;;4957149;28;87754;-78
2023/11/26 12:28:32;;;;;;;34.20;13.98;;;7.10;99.90;;;;;;4938313;28;90022;-78
2023/11/26 12:30:59;;;;;;;30.00;13.18;;;7.10;99.90;;;;;;4938500;28;92644;-78
2023/11/26 12:33:25;;;;;;;35.22;14.00;;;7.10;99.90;;;;;;4938699;28;92348;-78
2023/11/26 12:35:51;;;;;;;34.22;14.35;;;7.20;99.90;;;;;;4937579;28;87532;-77
2023/11/26 12:38:25;;;;;;;37.38;14.63;;;7.10;99.90;;;;;;4955104;28;87918;-80
2023/11/26 12:40:52;;;;;;;35.35;13.18;;;7.20;99.90;;;;;;4956753;28;87515;-77
2023/11/26 12:43:19;;;;;;;40.70;14.30;;;7.20;99.90;;;;;;4954324;28;88650;-80
2023/11/26 12:45:45;;;;;;;32.97;14.38;;;7.20;99.90;;;;;;4944898;28;87240;-78
2023/11/26 12:48:11;;;;;;;39.80;15.20;;;7.20;99.90;;;;;;4951265;28;87555;-78
2023/11/26 12:50:44;;;;;;;34.78;14.93;;;7.20;99.90;;;;;;4926441;28;92008;-78
2023/11/26 12:53:14;;;;;;;36.93;14.37;;;7.30;99.90;;;;;;4945181;28;87595;-78
2023/11/26 12:55:47;;;;;;;35.78;13.93;;;7.30;99.90;;;;;;4930180;28;88204;-77
2023/11/26 12:58:21;;;;;;;36.00;13.57;;;7.30;99.90;;;;;;4948732;28;87475;-77
2023/11/26 13:00:47;;;;;;;45.58;15.30;;;7.30;99.90;;;;;;4942587;28;88664;-77
2023/11/26 13:03:18;;;;;;;35.85;15.27;;;7.30;99.90;;;;;;4948331;28;87809;-77
2023/11/26 13:05:44;;;;;;;28.48;12.77;;;7.30;99.90;;;;;;4948273;28;88701;-77
2023/11/26 13:08:18;;;;;;;30.35;13.30;;;7.30;99.90;;;;;;4927645;28;92830;-78
2023/11/26 13:10:52;;;;;;;33.63;13.05;;;7.30;99.90;;;;;;4955222;28;88709;-77
2023/11/26 13:13:33;;;;;;;31.80;12.23;;;7.20;99.90;;;;;;4932592;28;91728;-77
2023/11/26 13:16:01;;;;;;;35.80;13.90;;;7.30;99.90;;;;;;4940587;28;88144;-77
2023/11/26 13:18:30;;;;;;;30.95;13.43;;;7.20;99.90;;;;;;4948553;28;87595;-80
2023/11/26 13:20:58;;;;;;;32.10;12.70;;;7.20;99.90;;;;;;4951695;28;88680;-78
2023/11/26 13:23:24;;;;;;;28.33;12.57;;;7.20;99.90;;;;;;4937370;28;92009;-78
2023/11/26 13:25:56;;;;;;;28.02;12.00;;;7.20;99.90;;;;;;4942669;28;89947;-78
2023/11/26 13:28:26;;;;;;;27.50;12.15;;;7.20;99.90;;;;;;4953224;28;88008;-78
2023/11/26 13:30:52;;;;;;;36.25;13.55;;;7.20;99.90;;;;;;4931105;28;95922;-77
2023/11/26 13:33:19;;;;;;;35.83;13.52;;;7.30;99.90;;;;;;4948969;28;88566;-77
2023/11/26 13:35:45;;;;;;;29.92;12.65;;;7.30;99.90;;;;;;4930498;28;87726;-77
2023/11/26 13:38:12;;;;;;;33.05;12.30;;;7.30;99.90;;;;;;4938048;28;90004;-78
2023/11/26 13:40:39;;;;;;;30.73;11.75;;;7.30;99.90;;;;;;4943250;28;88844;-77
2023/11/26 13:43:18;;;;;;;32.95;11.93;;;7.30;99.90;;;;;;4957051;28;88558;-77
2023/11/26 13:45:44;;;;;;;28.75;11.20;;;7.30;99.90;;;;;;4960183;28;89310;-77
2023/11/26 13:48:13;;;;;;;27.73;10.75;;;7.40;99.90;;;;;;4945525;28;88117;-77
2023/11/26 13:50:39;;;;;;;31.17;10.68;;;7.40;99.90;;;;;;4946912;28;88539;-77
2023/11/26 13:53:06;;;;;;;27.77;11.10;;;7.40;99.90;;;;;;4923151;28;90547;-77
2023/11/26 13:55:33;;;;;;;31.45;10.65;;;7.40;99.90;;;;;;4942589;28;88371;-77
2023/11/26 13:57:58;;;;;;;28.05;9.85;;;7.40;99.90;;;;;;4943405;28;87715;-77
2023/11/26 14:00:27;;;;;;;22.40;9.65;;;7.50;99.90;;;;;;4923302;28;91599;-77
2023/11/26 14:02:53;;;;;;;20.65;9.23;;;7.50;99.90;;;;;;4933484;28;91506;-78
2023/11/26 14:05:19;;;;;;;27.25;9.65;;;7.50;99.90;;;;;;4958382;28;87386;-77
2023/11/26 14:07:47;;;;;;;30.92;9.88;;;7.40;99.90;;;;;;4949879;28;87201;-77
2023/11/26 14:10:18;;;;;;;29.67;8.43;;;7.40;99.90;;;;;;4941660;28;93188;-77
2023/11/26 14:12:45;;;;;;;23.35;7.20;;;7.40;99.90;;;;;;4930734;28;91295;-77
2023/11/26 14:15:17;;;;;;;27.83;8.45;;;7.40;99.90;;;;;;4928818;28;87346;-77
2023/11/26 14:17:47;;;;;;;23.45;8.50;;;7.40;99.90;;;;;;4930655;28;89166;-77
2023/11/26 14:20:16;;;;;;;21.30;6.85;;;7.40;99.90;;;;;;4954239;28;90477;-77
2023/11/26 14:22:43;;;;;;;21.63;6.72;;;7.40;99.90;;;;;;4936966;28;91221;-77
2023/11/26 14:25:16;;;;;;;22.27;6.10;;;7.40;99.90;;;;;;4935990;28;88176;-77
2023/11/26 14:27:47;;;;;;;24.23;6.82;;;7.40;99.90;;;;;;4954624;28;87798;-77
2023/11/26 14:30:14;;;;;;;25.48;7.22;;;7.30;99.90;;;;;;4910006;28;90095;-77
2023/11/26 14:32:44;;;;;;;17.33;6.45;;;7.30;99.90;;;;;;4943730;28;88373;-77
2023/11/26 14:35:11;;;;;;;24.35;7.82;;;7.30;99.90;;;;;;4934933;28;88525;-77
2023/11/26 14:37:39;;;;;;;24.38;7.80;;;7.30;99.90;;;;;;4926159;28;90940;-77
2023/11/26 14:40:17;;;;;;;21.02;7.40;;;7.30;99.90;;;;;;4954709;28;89341;-77
2023/11/26 14:42:44;;;;;;;21.63;7.18;;;7.20;99.90;;;;;;4966663;28;90532;-77
2023/11/26 14:45:11;;;;;;;25.75;8.20;;;7.30;99.90;;;;;;4936666;28;87883;-80
2023/11/26 14:47:38;;;;;;;28.13;7.88;;;7.20;99.90;;;;;;4936979;28;88720;-78
2023/11/26 14:50:05;;;;;;;20.50;6.80;;;7.20;99.90;;;;;;4938700;28;90740;-78
2023/11/26 14:52:31;;;;;;;24.95;7.60;;;7.20;99.90;;;;;;4970922;28;91391;-78
2023/11/26 14:54:57;;;;;;;24.67;8.43;;;7.10;99.90;;;;;;4948141;28;87610;-77
2023/11/26 14:57:26;;;;;;;14.23;6.88;;;7.10;99.90;;;;;;4961153;28;89031;-77
2023/11/26 14:59:53;;;;;;;17.45;6.97;;;7.10;99.90;;;;;;4947894;28;89763;-77
2023/11/26 15:02:19;;;;;;;22.15;6.88;;;7.10;99.90;;;;;;4953402;28;89227;-77
2023/11/26 15:04:45;;;;;;;19.15;7.25;;;7.10;99.90;;;;;;4945336;28;88323;-77
2023/11/26 15:07:10;;;;;;;24.83;7.22;;;7.10;99.90;;;;;;4932278;28;90723;-77
2023/11/26 15:09:36;;;;;;;21.30;8.10;;;7.00;99.90;;;;;;4933796;28;90909;-77
2023/11/26 15:12:02;;;;;;;23.42;8.57;;;7.00;99.90;;;;;;4954506;28;87670;-77
2023/11/26 15:14:31;;;;;;;22.08;8.45;;;7.00;99.90;;;;;;4957119;28;87507;-76
2023/11/26 15:16:57;;;;;;;27.38;9.45;;;6.90;99.90;;;;;;4940435;28;90329;-77
2023/11/26 15:19:23;;;;;;;25.08;8.80;;;6.80;99.90;;;;;;4941168;28;89710;-77
2023/11/26 15:21:49;;;;;;;28.75;9.13;;;6.80;99.90;;;;;;4940055;28;91271;-77
2023/11/26 15:24:18;;;;;;;22.92;8.27;;;6.80;99.90;;;;;;4938933;28;95896;-78
2023/11/26 15:26:44;;;;;;;22.20;8.30;;;6.80;99.90;;;;;;4935798;28;90555;-77
2023/11/26 15:29:12;;;;;;;29.45;8.73;;;6.70;99.90;;;;;;4953379;28;87730;-79
2023/11/26 15:31:39;;;;;;;28.65;10.13;;;6.70;99.90;;;;;;4938485;28;90623;-78
2023/11/26 15:34:06;;;;;;;23.63;8.82;;;6.70;99.90;;;;;;4936299;28;87806;-77